sensor_id;sensor_type;location;lat;lon;timestamp;pressure;altitude;pressure_sealevel;temperature;humidity
4858;BME280;58975;51.978;8.472;2024-01-30T00:02:18;101538.88;;;3.89;100.00
4858;BME280;58975;51.978;8.472;2024-01-30T00:07:14;101540.38;;;3.96;100.00
4858;BME280;58975;51.978;8.472;2024-01-30T00:12:11;101537.78;;;3.95;100.00
4858;BME280;58975;51.978;8.472;2024-01-30T00:17:07;101541.72;;;3.83;100.00
4858;BME280;58975;51.978;8.472;2024-01-30T00:22:04;101548.00;;;3.79;100.00
4858;BME280;58975;51.978;8.472;2024-01-30T00:27:00;101532.69;;;3.90;100.00
4858;BME280;58975;51.978;8.472;2024-01-30T00:31:57;101536.38;;;3.85;100.00
4858;BME280;58975;51.978;8.472;2024-01-30T00:36:53;101535.03;;;3.73;100.00
4858;BME280;58975;51.978;8.472;2024-01-30T00:41:50;101529.16;;;3.65;100.00
4858;BME280;58975;51.978;8.472;2024-01-30T00:46:46;101538.63;;;3.70;100.00
4858;BME280;58975;51.978;8.472;2024-01-30T00:51:43;101534.16;;;3.48;100.00
4858;BME280;58975;51.978;8.472;2024-01-30T00:56:39;101529.47;;;3.29;100.00
4858;BME280;58975;51.978;8.472;2024-01-30T01:01:36;101528.69;;;3.27;100.00
4858;BME280;58975;51.978;8.472;2024-01-30T01:06:32;101528.88;;;3.21;100.00
4858;BME280;58975;51.978;8.472;2024-01-30T01:11:29;101522.84;;;3.18;100.00
4858;BME280;58975;51.978;8.472;2024-01-30T01:16:25;101528.56;;;3.04;100.00
4858;BME280;58975;51.978;8.472;2024-01-30T01:21:22;101527.94;;;2.96;100.00
4858;BME280;58975;51.978;8.472;2024-01-30T01:26:19;101521.06;;;2.91;100.00
4858;BME280;58975;51.978;8.472;2024-01-30T01:31:15;101512.72;;;2.78;100.00
4858;BME280;58975;51.978;8.472;2024-01-30T01:36:14;101519.91;;;2.73;100.00
4858;BME280;58975;51.978;8.472;2024-01-30T01:41:10;101513.44;;;2.83;100.00
4858;BME280;58975;51.978;8.472;2024-01-30T01:46:08;101516.06;;;2.83;100.00
4858;BME280;58975;51.978;8.472;2024-01-30T01:51:05;101514.91;;;2.92;100.00
4858;BME280;58975;51.978;8.472;2024-01-30T01:56:02;101514.72;;;2.70;100.00
4858;BME280;58975;51.978;8.472;2024-01-30T02:00:59;101499.41;;;2.82;100.00
4858;BME280;58975;51.978;8.472;2024-01-30T02:05:56;101502.63;;;2.92;100.00
4858;BME280;58975;51.978;8.472;2024-01-30T02:10:53;101508.00;;;2.89;100.00
4858;BME280;58975;51.978;8.472;2024-01-30T02:15:52;101503.84;;;2.82;100.00
4858;BME280;58975;51.978;8.472;2024-01-30T02:20:50;101497.88;;;2.75;100.00
4858;BME280;58975;51.978;8.472;2024-01-30T02:25:49;101505.25;;;2.64;100.00
4858;BME280;58975;51.978;8.472;2024-01-30T02:30:46;101495.97;;;2.80;100.00
4858;BME280;58975;51.978;8.472;2024-01-30T02:35:42;101496.09;;;2.77;100.00
4858;BME280;58975;51.978;8.472;2024-01-30T02:40:39;101494.38;;;2.75;100.00
4858;BME280;58975;51.978;8.472;2024-01-30T02:45:35;101487.69;;;2.65;100.00
4858;BME280;58975;51.978;8.472;2024-01-30T02:50:32;101484.94;;;2.69;100.00
4858;BME280;58975;51.978;8.472;2024-01-30T02:55:28;101478.53;;;2.78;100.00
4858;BME280;58975;51.978;8.472;2024-01-30T03:00:25;101461.81;;;2.79;100.00
4858;BME280;58975;51.978;8.472;2024-01-30T03:05:22;101462.53;;;2.84;100.00
4858;BME280;58975;51.978;8.472;2024-01-30T03:10:18;101474.91;;;2.82;100.00
4858;BME280;58975;51.978;8.472;2024-01-30T03:15:15;101461.03;;;2.77;100.00
4858;BME280;58975;51.978;8.472;2024-01-30T03:20:12;101457.28;;;2.84;100.00
4858;BME280;58975;51.978;8.472;2024-01-30T03:25:08;101457.91;;;2.92;100.00
4858;BME280;58975;51.978;8.472;2024-01-30T03:30:05;101452.13;;;3.07;100.00
4858;BME280;58975;51.978;8.472;2024-01-30T03:35:02;101455.66;;;3.06;100.00
4858;BME280;58975;51.978;8.472;2024-01-30T03:39:59;101451.22;;;3.08;100.00
4858;BME280;58975;51.978;8.472;2024-01-30T03:44:56;101452.09;;;3.09;100.00
4858;BME280;58975;51.978;8.472;2024-01-30T03:49:52;101444.06;;;3.13;100.00
4858;BME280;58975;51.978;8.472;2024-01-30T03:54:49;101449.13;;;3.18;100.00
4858;BME280;58975;51.978;8.472;2024-01-30T03:59:45;101445.34;;;3.26;100.00
4858;BME280;58975;51.978;8.472;2024-01-30T04:04:42;101439.47;;;3.18;100.00
4858;BME280;58975;51.978;8.472;2024-01-30T04:09:39;101439.13;;;3.29;100.00
4858;BME280;58975;51.978;8.472;2024-01-30T04:14:39;101433.53;;;3.38;100.00
4858;BME280;58975;51.978;8.472;2024-01-30T04:19:40;101431.66;;;3.66;100.00
4858;BME280;58975;51.978;8.472;2024-01-30T04:24:37;101424.88;;;3.59;100.00
4858;BME280;58975;51.978;8.472;2024-01-30T04:29:33;101428.31;;;3.61;100.00
4858;BME280;58975;51.978;8.472;2024-01-30T04:34:30;101424.47;;;3.47;100.00
4858;BME280;58975;51.978;8.472;2024-01-30T04:39:27;101432.59;;;3.41;100.00
4858;BME280;58975;51.978;8.472;2024-01-30T04:44:23;101428.22;;;3.40;100.00
4858;BME280;58975;51.978;8.472;2024-01-30T04:49:20;101437.78;;;3.42;100.00
4858;BME280;58975;51.978;8.472;2024-01-30T04:54:16;101432.78;;;3.34;100.00
4858;BME280;58975;51.978;8.472;2024-01-30T04:59:13;101438.13;;;3.33;100.00
4858;BME280;58975;51.978;8.472;2024-01-30T05:04:09;101442.41;;;3.36;100.00
4858;BME280;58975;51.978;8.472;2024-01-30T05:09:12;101427.63;;;3.31;100.00
4858;BME280;58975;51.978;8.472;2024-01-30T05:14:09;101432.81;;;3.08;100.00
4858;BME280;58975;51.978;8.472;2024-01-30T05:19:05;101429.47;;;3.03;100.00
4858;BME280;58975;51.978;8.472;2024-01-30T05:24:02;101427.66;;;3.05;100.00
4858;BME280;58975;51.978;8.472;2024-01-30T05:28:58;101424.19;;;3.03;100.00
4858;BME280;58975;51.978;8.472;2024-01-30T05:33:55;101423.44;;;3.00;100.00
4858;BME280;58975;51.978;8.472;2024-01-30T05:38:52;101428.09;;;3.18;100.00
4858;BME280;58975;51.978;8.472;2024-01-30T05:43:48;101428.94;;;3.45;100.00
4858;BME280;58975;51.978;8.472;2024-01-30T05:48:44;101425.47;;;3.43;100.00
4858;BME280;58975;51.978;8.472;2024-01-30T05:53:41;101408.78;;;3.44;100.00
4858;BME280;58975;51.978;8.472;2024-01-30T05:58:37;101417.72;;;3.38;100.00
4858;BME280;58975;51.978;8.472;2024-01-30T06:03:34;101417.56;;;3.43;100.00
4858;BME280;58975;51.978;8.472;2024-01-30T06:08:30;101420.06;;;3.47;100.00
4858;BME280;58975;51.978;8.472;2024-01-30T06:13:27;101420.31;;;3.40;100.00
4858;BME280;58975;51.978;8.472;2024-01-30T06:18:23;101420.84;;;3.24;100.00
4858;BME280;58975;51.978;8.472;2024-01-30T06:23:20;101411.34;;;3.20;100.00
4858;BME280;58975;51.978;8.472;2024-01-30T06:28:16;101414.13;;;3.16;100.00
4858;BME280;58975;51.978;8.472;2024-01-30T06:33:13;101410.78;;;3.11;100.00
4858;BME280;58975;51.978;8.472;2024-01-30T06:38:11;101406.38;;;3.11;100.00
4858;BME280;58975;51.978;8.472;2024-01-30T06:43:07;101415.09;;;3.13;100.00
4858;BME280;58975;51.978;8.472;2024-01-30T06:48:04;101416.16;;;3.08;100.00
4858;BME280;58975;51.978;8.472;2024-01-30T06:53:01;101409.72;;;3.16;100.00
4858;BME280;58975;51.978;8.472;2024-01-30T06:57:57;101402.84;;;3.12;100.00
4858;BME280;58975;51.978;8.472;2024-01-30T07:02:54;101413.47;;;3.09;100.00
4858;BME280;58975;51.978;8.472;2024-01-30T07:07:50;101399.56;;;3.06;100.00
4858;BME280;58975;51.978;8.472;2024-01-30T07:12:47;101402.31;;;3.27;100.00
4858;BME280;58975;51.978;8.472;2024-01-30T07:17:43;101411.00;;;3.29;100.00
4858;BME280;58975;51.978;8.472;2024-01-30T07:22:40;101416.50;;;3.23;100.00
4858;BME280;58975;51.978;8.472;2024-01-30T07:27:37;101417.81;;;3.37;100.00
4858;BME280;58975;51.978;8.472;2024-01-30T07:32:33;101419.31;;;3.44;100.00
4858;BME280;58975;51.978;8.472;2024-01-30T07:37:30;101424.75;;;3.38;100.00
4858;BME280;58975;51.978;8.472;2024-01-30T07:42:26;101425.44;;;3.44;100.00
4858;BME280;58975;51.978;8.472;2024-01-30T07:47:23;101416.53;;;3.48;100.00
4858;BME280;58975;51.978;8.472;2024-01-30T07:52:19;101420.66;;;3.55;100.00
4858;BME280;58975;51.978;8.472;2024-01-30T07:57:16;101426.19;;;3.48;100.00
4858;BME280;58975;51.978;8.472;2024-01-30T08:02:13;101425.84;;;3.57;100.00
4858;BME280;58975;51.978;8.472;2024-01-30T08:07:09;101429.59;;;3.74;100.00
4858;BME280;58975;51.978;8.472;2024-01-30T08:12:06;101418.75;;;3.84;100.00
4858;BME280;58975;51.978;8.472;2024-01-30T08:17:03;101412.50;;;3.86;100.00
4858;BME280;58975;51.978;8.472;2024-01-30T08:21:59;101410.88;;;4.05;100.00
4858;BME280;58975;51.978;8.472;2024-01-30T08:26:56;101418.34;;;4.39;100.00
4858;BME280;58975;51.978;8.472;2024-01-30T08:31:53;101425.09;;;4.69;100.00
4858;BME280;58975;51.978;8.472;2024-01-30T08:36:51;101438.34;;;5.10;100.00
4858;BME280;58975;51.978;8.472;2024-01-30T08:41:48;101445.06;;;5.39;100.00
4858;BME280;58975;51.978;8.472;2024-01-30T08:46:45;101438.59;;;5.66;100.00
4858;BME280;58975;51.978;8.472;2024-01-30T08:51:41;101440.66;;;5.80;100.00
4858;BME280;58975;51.978;8.472;2024-01-30T08:56:38;101430.34;;;5.94;100.00
4858;BME280;58975;51.978;8.472;2024-01-30T09:01:35;101427.56;;;6.15;100.00
4858;BME280;58975;51.978;8.472;2024-01-30T09:06:31;101434.47;;;6.38;100.00
4858;BME280;58975;51.978;8.472;2024-01-30T09:11:29;101432.19;;;6.66;100.00
4858;BME280;58975;51.978;8.472;2024-01-30T09:16:25;101428.94;;;6.97;100.00
4858;BME280;58975;51.978;8.472;2024-01-30T09:21:22;101430.75;;;7.31;100.00
4858;BME280;58975;51.978;8.472;2024-01-30T09:26:19;101421.56;;;7.55;100.00
4858;BME280;58975;51.978;8.472;2024-01-30T09:31:17;101416.94;;;7.76;100.00
4858;BME280;58975;51.978;8.472;2024-01-30T09:36:16;101408.84;;;7.95;100.00
4858;BME280;58975;51.978;8.472;2024-01-30T09:41:15;101397.41;;;8.10;100.00
4858;BME280;58975;51.978;8.472;2024-01-30T09:46:13;101392.97;;;8.26;100.00
4858;BME280;58975;51.978;8.472;2024-01-30T09:51:14;101389.41;;;8.43;100.00
4858;BME280;58975;51.978;8.472;2024-01-30T09:56:12;101382.56;;;8.54;100.00
4858;BME280;58975;51.978;8.472;2024-01-30T10:01:09;101377.75;;;8.61;100.00
4858;BME280;58975;51.978;8.472;2024-01-30T10:06:08;101386.81;;;8.73;100.00
4858;BME280;58975;51.978;8.472;2024-01-30T10:11:04;101370.00;;;8.88;100.00
4858;BME280;58975;51.978;8.472;2024-01-30T10:16:01;101372.88;;;8.99;100.00
4858;BME280;58975;51.978;8.472;2024-01-30T10:20:59;101370.78;;;9.20;100.00
4858;BME280;58975;51.978;8.472;2024-01-30T10:25:55;101379.75;;;9.33;100.00
4858;BME280;58975;51.978;8.472;2024-01-30T10:31:01;101386.78;;;9.48;100.00
4858;BME280;58975;51.978;8.472;2024-01-30T10:36:03;101375.41;;;9.60;100.00
4858;BME280;58975;51.978;8.472;2024-01-30T10:41:01;101378.19;;;9.87;100.00
4858;BME280;58975;51.978;8.472;2024-01-30T10:46:07;101372.75;;;10.03;100.00
4858;BME280;58975;51.978;8.472;2024-01-30T10:51:06;101366.81;;;10.12;100.00
4858;BME280;58975;51.978;8.472;2024-01-30T10:56:03;101360.66;;;10.25;100.00
4858;BME280;58975;51.978;8.472;2024-01-30T11:01:01;101354.06;;;10.45;100.00
4858;BME280;58975;51.978;8.472;2024-01-30T11:05:59;101351.19;;;10.48;100.00
4858;BME280;58975;51.978;8.472;2024-01-30T11:10:57;101351.09;;;10.50;100.00
4858;BME280;58975;51.978;8.472;2024-01-30T11:15:54;101349.84;;;10.55;100.00
4858;BME280;58975;51.978;8.472;2024-01-30T11:20:50;101351.66;;;10.55;100.00
4858;BME280;58975;51.978;8.472;2024-01-30T11:25:47;101351.75;;;10.53;100.00
4858;BME280;58975;51.978;8.472;2024-01-30T11:30:44;101363.00;;;10.44;100.00
4858;BME280;58975;51.978;8.472;2024-01-30T11:35:44;101355.00;;;10.71;100.00
4858;BME280;58975;51.978;8.472;2024-01-30T11:40:43;101348.66;;;10.86;100.00
4858;BME280;58975;51.978;8.472;2024-01-30T11:45:40;101344.03;;;11.02;100.00
4858;BME280;58975;51.978;8.472;2024-01-30T11:50:38;101340.66;;;11.13;100.00
4858;BME280;58975;51.978;8.472;2024-01-30T11:55:35;101343.09;;;11.16;100.00
4858;BME280;58975;51.978;8.472;2024-01-30T12:00:34;101350.47;;;11.25;100.00
4858;BME280;58975;51.978;8.472;2024-01-30T12:05:31;101343.53;;;11.35;100.00
4858;BME280;58975;51.978;8.472;2024-01-30T12:10:28;101342.78;;;11.20;100.00
4858;BME280;58975;51.978;8.472;2024-01-30T12:15:25;101344.50;;;11.34;100.00
4858;BME280;58975;51.978;8.472;2024-01-30T12:20:22;101346.44;;;11.32;100.00
4858;BME280;58975;51.978;8.472;2024-01-30T12:25:20;101348.97;;;11.21;100.00
4858;BME280;58975;51.978;8.472;2024-01-30T12:30:18;101344.06;;;11.27;100.00
4858;BME280;58975;51.978;8.472;2024-01-30T12:35:17;101348.25;;;11.31;100.00
4858;BME280;58975;51.978;8.472;2024-01-30T12:40:14;101347.06;;;11.35;100.00
4858;BME280;58975;51.978;8.472;2024-01-30T12:45:13;101356.56;;;11.27;100.00
4858;BME280;58975;51.978;8.472;2024-01-30T12:50:10;101360.59;;;11.20;100.00
4858;BME280;58975;51.978;8.472;2024-01-30T12:55:08;101362.38;;;11.07;100.00
4858;BME280;58975;51.978;8.472;2024-01-30T13:00:05;101356.50;;;11.02;100.00
4858;BME280;58975;51.978;8.472;2024-01-30T13:05:04;101356.44;;;11.16;100.00
4858;BME280;58975;51.978;8.472;2024-01-30T13:10:02;101353.16;;;11.25;100.00
4858;BME280;58975;51.978;8.472;2024-01-30T13:15:01;101356.00;;;11.22;100.00
4858;BME280;58975;51.978;8.472;2024-01-30T13:19:57;101366.78;;;11.20;100.00
4858;BME280;58975;51.978;8.472;2024-01-30T13:25:06;101371.56;;;11.15;100.00
4858;BME280;58975;51.978;8.472;2024-01-30T13:30:04;101358.53;;;11.11;100.00
4858;BME280;58975;51.978;8.472;2024-01-30T13:35:01;101360.47;;;11.09;100.00
4858;BME280;58975;51.978;8.472;2024-01-30T13:39:57;101358.84;;;11.06;100.00
4858;BME280;58975;51.978;8.472;2024-01-30T13:44:54;101357.69;;;11.10;100.00
4858;BME280;58975;51.978;8.472;2024-01-30T13:49:51;101359.72;;;11.07;100.00
4858;BME280;58975;51.978;8.472;2024-01-30T13:54:49;101368.34;;;11.10;100.00
4858;BME280;58975;51.978;8.472;2024-01-30T13:59:46;101354.06;;;11.11;100.00
4858;BME280;58975;51.978;8.472;2024-01-30T14:04:42;101362.16;;;11.10;100.00
4858;BME280;58975;51.978;8.472;2024-01-30T14:09:40;101366.66;;;11.09;100.00
4858;BME280;58975;51.978;8.472;2024-01-30T14:14:36;101367.91;;;11.04;100.00
4858;BME280;58975;51.978;8.472;2024-01-30T14:19:34;101376.34;;;10.98;100.00
4858;BME280;58975;51.978;8.472;2024-01-30T14:24:32;101373.84;;;10.95;100.00
4858;BME280;58975;51.978;8.472;2024-01-30T14:29:28;101371.00;;;10.98;100.00
4858;BME280;58975;51.978;8.472;2024-01-30T14:34:25;101375.34;;;10.99;100.00
4858;BME280;58975;51.978;8.472;2024-01-30T14:39:21;101367.16;;;11.02;100.00
4858;BME280;58975;51.978;8.472;2024-01-30T14:44:18;101380.00;;;11.09;100.00
4858;BME280;58975;51.978;8.472;2024-01-30T14:49:14;101384.66;;;11.06;100.00
4858;BME280;58975;51.978;8.472;2024-01-30T14:54:12;101378.50;;;11.05;100.00
4858;BME280;58975;51.978;8.472;2024-01-30T14:59:08;101378.59;;;11.04;100.00
4858;BME280;58975;51.978;8.472;2024-01-30T15:04:05;101377.50;;;10.94;100.00
4858;BME280;58975;51.978;8.472;2024-01-30T15:09:02;101380.75;;;10.84;100.00
4858;BME280;58975;51.978;8.472;2024-01-30T15:13:59;101385.66;;;10.90;100.00
4858;BME280;58975;51.978;8.472;2024-01-30T15:18:56;101398.47;;;10.85;100.00
4858;BME280;58975;51.978;8.472;2024-01-30T15:23:53;101397.91;;;10.80;100.00
4858;BME280;58975;51.978;8.472;2024-01-30T15:28:50;101393.72;;;10.76;100.00
4858;BME280;58975;51.978;8.472;2024-01-30T15:33:47;101399.16;;;10.75;100.00
4858;BME280;58975;51.978;8.472;2024-01-30T15:38:43;101398.19;;;10.76;100.00
4858;BME280;58975;51.978;8.472;2024-01-30T15:43:40;101394.69;;;10.75;100.00
4858;BME280;58975;51.978;8.472;2024-01-30T15:48:36;101414.69;;;10.68;100.00
4858;BME280;58975;51.978;8.472;2024-01-30T15:53:32;101421.94;;;10.66;100.00
4858;BME280;58975;51.978;8.472;2024-01-30T15:58:29;101429.16;;;10.64;100.00
4858;BME280;58975;51.978;8.472;2024-01-30T16:03:26;101431.47;;;10.56;100.00
4858;BME280;58975;51.978;8.472;2024-01-30T16:08:24;101430.22;;;10.48;100.00
4858;BME280;58975;51.978;8.472;2024-01-30T16:13:21;101425.03;;;10.46;100.00
4858;BME280;58975;51.978;8.472;2024-01-30T16:18:17;101430.34;;;10.46;100.00
4858;BME280;58975;51.978;8.472;2024-01-30T16:23:14;101432.84;;;10.35;100.00
4858;BME280;58975;51.978;8.472;2024-01-30T16:28:10;101433.88;;;10.32;100.00
4858;BME280;58975;51.978;8.472;2024-01-30T16:33:06;101443.13;;;10.27;100.00
4858;BME280;58975;51.978;8.472;2024-01-30T16:38:03;101445.00;;;10.25;100.00
4858;BME280;58975;51.978;8.472;2024-01-30T16:43:00;101437.03;;;10.25;100.00
4858;BME280;58975;51.978;8.472;2024-01-30T16:47:56;101465.94;;;10.31;100.00
4858;BME280;58975;51.978;8.472;2024-01-30T16:52:53;101464.69;;;10.36;100.00
4858;BME280;58975;51.978;8.472;2024-01-30T16:57:49;101473.16;;;10.29;100.00
4858;BME280;58975;51.978;8.472;2024-01-30T17:02:45;101477.22;;;10.20;100.00
4858;BME280;58975;51.978;8.472;2024-01-30T17:07:42;101502.56;;;10.12;100.00
4858;BME280;58975;51.978;8.472;2024-01-30T17:12:38;101517.41;;;10.02;100.00
4858;BME280;58975;51.978;8.472;2024-01-30T17:17:35;101515.84;;;9.83;100.00
4858;BME280;58975;51.978;8.472;2024-01-30T17:22:31;101525.50;;;9.70;100.00
4858;BME280;58975;51.978;8.472;2024-01-30T17:27:28;101525.19;;;9.45;100.00
4858;BME280;58975;51.978;8.472;2024-01-30T17:32:25;101527.41;;;9.23;99.59
4858;BME280;58975;51.978;8.472;2024-01-30T17:37:22;101529.31;;;9.05;97.11
4858;BME280;58975;51.978;8.472;2024-01-30T17:42:18;101542.75;;;8.86;96.65
4858;BME280;58975;51.978;8.472;2024-01-30T17:47:17;101544.56;;;8.70;97.80
4858;BME280;58975;51.978;8.472;2024-01-30T17:52:14;101549.06;;;8.68;97.80
4858;BME280;58975;51.978;8.472;2024-01-30T17:57:11;101562.25;;;8.54;99.67
4858;BME280;58975;51.978;8.472;2024-01-30T18:02:08;101564.53;;;8.44;100.00
4858;BME280;58975;51.978;8.472;2024-01-30T18:07:04;101575.53;;;8.37;100.00
4858;BME280;58975;51.978;8.472;2024-01-30T18:12:01;101588.34;;;8.29;100.00
4858;BME280;58975;51.978;8.472;2024-01-30T18:16:58;101586.56;;;8.29;100.00
4858;BME280;58975;51.978;8.472;2024-01-30T18:21:55;101596.16;;;8.32;100.00
4858;BME280;58975;51.978;8.472;2024-01-30T18:26:51;101598.66;;;8.35;100.00
4858;BME280;58975;51.978;8.472;2024-01-30T18:31:48;101598.56;;;8.36;98.47
4858;BME280;58975;51.978;8.472;2024-01-30T18:36:44;101606.28;;;8.41;96.84
4858;BME280;58975;51.978;8.472;2024-01-30T18:41:41;101591.84;;;8.46;95.25
4858;BME280;58975;51.978;8.472;2024-01-30T18:46:37;101604.41;;;8.43;94.89
4858;BME280;58975;51.978;8.472;2024-01-30T18:51:34;101599.19;;;8.41;94.65
4858;BME280;58975;51.978;8.472;2024-01-30T18:56:31;101601.75;;;8.43;93.94
4858;BME280;58975;51.978;8.472;2024-01-30T19:01:27;101612.69;;;8.37;93.81
4858;BME280;58975;51.978;8.472;2024-01-30T19:06:24;101625.97;;;8.37;93.56
4858;BME280;58975;51.978;8.472;2024-01-30T19:11:21;101631.53;;;8.32;94.18
4858;BME280;58975;51.978;8.472;2024-01-30T19:16:18;101634.38;;;8.28;95.89
4858;BME280;58975;51.978;8.472;2024-01-30T19:21:14;101654.38;;;8.18;100.00
4858;BME280;58975;51.978;8.472;2024-01-30T19:26:11;101663.75;;;8.07;100.00
4858;BME280;58975;51.978;8.472;2024-01-30T19:31:07;101680.09;;;7.98;100.00
4858;BME280;58975;51.978;8.472;2024-01-30T19:36:05;101685.84;;;7.72;100.00
4858;BME280;58975;51.978;8.472;2024-01-30T19:41:02;101691.84;;;7.57;100.00
4858;BME280;58975;51.978;8.472;2024-01-30T19:45:58;101691.34;;;7.49;100.00
4858;BME280;58975;51.978;8.472;2024-01-30T19:50:55;101697.88;;;7.42;100.00
4858;BME280;58975;51.978;8.472;2024-01-30T19:55:52;101699.75;;;7.40;100.00
4858;BME280;58975;51.978;8.472;2024-01-30T20:00:49;101707.03;;;7.35;100.00
4858;BME280;58975;51.978;8.472;2024-01-30T20:05:46;101716.06;;;7.31;100.00
4858;BME280;58975;51.978;8.472;2024-01-30T20:10:43;101710.09;;;7.26;100.00
4858;BME280;58975;51.978;8.472;2024-01-30T20:15:40;101721.88;;;7.20;100.00
4858;BME280;58975;51.978;8.472;2024-01-30T20:20:36;101723.66;;;7.20;100.00
4858;BME280;58975;51.978;8.472;2024-01-30T20:25:33;101729.16;;;7.15;100.00
4858;BME280;58975;51.978;8.472;2024-01-30T20:30:29;101733.88;;;7.08;100.00
4858;BME280;58975;51.978;8.472;2024-01-30T20:35:25;101754.16;;;7.09;100.00
4858;BME280;58975;51.978;8.472;2024-01-30T20:40:22;101748.03;;;7.07;100.00
4858;BME280;58975;51.978;8.472;2024-01-30T20:45:19;101762.28;;;7.05;100.00
4858;BME280;58975;51.978;8.472;2024-01-30T20:50:16;101762.34;;;7.03;100.00
4858;BME280;58975;51.978;8.472;2024-01-30T20:55:13;101764.22;;;7.01;100.00
4858;BME280;58975;51.978;8.472;2024-01-30T21:00:10;101766.13;;;6.98;100.00
4858;BME280;58975;51.978;8.472;2024-01-30T21:05:08;101772.38;;;6.97;100.00
4858;BME280;58975;51.978;8.472;2024-01-30T21:10:05;101775.16;;;6.94;100.00
4858;BME280;58975;51.978;8.472;2024-01-30T21:15:04;101768.13;;;6.93;100.00
4858;BME280;58975;51.978;8.472;2024-01-30T21:20:01;101783.09;;;6.94;100.00
4858;BME280;58975;51.978;8.472;2024-01-30T21:24:59;101779.69;;;6.90;100.00
4858;BME280;58975;51.978;8.472;2024-01-30T21:29:56;101778.25;;;6.83;100.00
4858;BME280;58975;51.978;8.472;2024-01-30T21:34:52;101785.78;;;6.72;100.00
4858;BME280;58975;51.978;8.472;2024-01-30T21:39:49;101789.50;;;6.68;100.00
4858;BME280;58975;51.978;8.472;2024-01-30T21:44:46;101801.13;;;6.64;100.00
4858;BME280;58975;51.978;8.472;2024-01-30T21:49:43;101807.47;;;6.60;100.00
4858;BME280;58975;51.978;8.472;2024-01-30T21:54:40;101821.09;;;6.51;100.00
4858;BME280;58975;51.978;8.472;2024-01-30T21:59:36;101814.50;;;6.39;100.00
4858;BME280;58975;51.978;8.472;2024-01-30T22:04:32;101823.63;;;6.32;100.00
4858;BME280;58975;51.978;8.472;2024-01-30T22:09:29;101831.09;;;6.23;100.00
4858;BME280;58975;51.978;8.472;2024-01-30T22:14:26;101848.09;;;6.15;100.00
4858;BME280;58975;51.978;8.472;2024-01-30T22:19:22;101850.13;;;6.09;100.00
4858;BME280;58975;51.978;8.472;2024-01-30T22:24:19;101863.53;;;6.04;100.00
4858;BME280;58975;51.978;8.472;2024-01-30T22:29:15;101883.06;;;6.00;100.00
4858;BME280;58975;51.978;8.472;2024-01-30T22:34:13;101891.13;;;5.97;100.00
4858;BME280;58975;51.978;8.472;2024-01-30T22:39:09;101898.28;;;5.95;100.00
4858;BME280;58975;51.978;8.472;2024-01-30T22:44:06;101902.88;;;5.90;100.00
4858;BME280;58975;51.978;8.472;2024-01-30T22:49:02;101914.34;;;5.89;100.00
4858;BME280;58975;51.978;8.472;2024-01-30T22:53:59;101941.78;;;5.85;100.00
4858;BME280;58975;51.978;8.472;2024-01-30T22:58:56;101941.00;;;5.83;100.00
4858;BME280;58975;51.978;8.472;2024-01-30T23:03:52;101952.44;;;5.84;100.00
4858;BME280;58975;51.978;8.472;2024-01-30T23:08:49;101961.31;;;5.81;100.00
4858;BME280;58975;51.978;8.472;2024-01-30T23:13:45;101965.81;;;5.79;100.00
4858;BME280;58975;51.978;8.472;2024-01-30T23:18:41;101972.88;;;5.79;100.00
4858;BME280;58975;51.978;8.472;2024-01-30T23:23:38;101987.13;;;5.75;100.00
4858;BME280;58975;51.978;8.472;2024-01-30T23:28:34;101990.78;;;5.70;100.00
4858;BME280;58975;51.978;8.472;2024-01-30T23:33:31;101983.03;;;5.66;100.00
4858;BME280;58975;51.978;8.472;2024-01-30T23:38:27;101988.47;;;5.61;100.00
4858;BME280;58975;51.978;8.472;2024-01-30T23:43:24;101992.94;;;5.59;100.00
4858;BME280;58975;51.978;8.472;2024-01-30T23:48:25;101988.53;;;5.60;100.00
4858;BME280;58975;51.978;8.472;2024-01-30T23:53:22;101992.19;;;5.56;100.00
4858;BME280;58975;51.978;8.472;2024-01-30T23:58:18;101989.63;;;5.53;100.00
